sensor_id;sensor_type;location;lat;lon;timestamp;temperature;humidity
73643;DHT22;61938;48.652;9.292;2023-05-07T00:01:48;12.60;99.90
73643;DHT22;61938;48.652;9.292;2023-05-07T00:04:13;12.60;99.90
73643;DHT22;61938;48.652;9.292;2023-05-07T00:06:39;12.70;99.90
73643;DHT22;61938;48.652;9.292;2023-05-07T00:09:05;12.70;99.90
73643;DHT22;61938;48.652;9.292;2023-05-07T00:11:31;12.70;99.90
73643;DHT22;61938;48.652;9.292;2023-05-07T00:13:56;12.70;99.90
73643;DHT22;61938;48.652;9.292;2023-05-07T00:16:22;12.70;99.90
73643;DHT22;61938;48.652;9.292;2023-05-07T00:18:48;12.80;99.90
73643;DHT22;61938;48.652;9.292;2023-05-07T00:21:13;12.80;99.90
73643;DHT22;61938;48.652;9.292;2023-05-07T00:23:39;12.70;99.90
73643;DHT22;61938;48.652;9.292;2023-05-07T00:26:04;12.70;99.90
73643;DHT22;61938;48.652;9.292;2023-05-07T00:28:30;12.60;99.90
73643;DHT22;61938;48.652;9.292;2023-05-07T00:30:55;12.50;99.90
73643;DHT22;61938;48.652;9.292;2023-05-07T00:33:21;12.50;99.90
73643;DHT22;61938;48.652;9.292;2023-05-07T00:35:47;12.50;99.90
73643;DHT22;61938;48.652;9.292;2023-05-07T00:38:13;12.50;99.90
73643;DHT22;61938;48.652;9.292;2023-05-07T00:40:39;12.50;99.90
73643;DHT22;61938;48.652;9.292;2023-05-07T00:43:04;12.50;99.90
73643;DHT22;61938;48.652;9.292;2023-05-07T00:45:30;12.50;99.90
73643;DHT22;61938;48.652;9.292;2023-05-07T00:47:57;12.50;99.90
73643;DHT22;61938;48.652;9.292;2023-05-07T00:50:23;12.50;99.90
73643;DHT22;61938;48.652;9.292;2023-05-07T00:52:49;12.80;99.90
73643;DHT22;61938;48.652;9.292;2023-05-07T00:55:15;12.40;99.90
73643;DHT22;61938;48.652;9.292;2023-05-07T00:57:41;12.50;99.90
73643;DHT22;61938;48.652;9.292;2023-05-07T01:00:08;12.50;99.90
73643;DHT22;61938;48.652;9.292;2023-05-07T01:02:41;12.50;99.90
73643;DHT22;61938;48.652;9.292;2023-05-07T01:05:10;12.50;99.90
73643;DHT22;61938;48.652;9.292;2023-05-07T01:07:37;12.50;99.90
73643;DHT22;61938;48.652;9.292;2023-05-07T01:10:04;12.50;99.90
73643;DHT22;61938;48.652;9.292;2023-05-07T01:12:31;12.50;99.90
73643;DHT22;61938;48.652;9.292;2023-05-07T01:14:57;12.40;99.90
73643;DHT22;61938;48.652;9.292;2023-05-07T01:17:23;12.30;99.90
73643;DHT22;61938;48.652;9.292;2023-05-07T01:19:49;12.40;99.90
73643;DHT22;61938;48.652;9.292;2023-05-07T01:22:16;12.30;99.90
73643;DHT22;61938;48.652;9.292;2023-05-07T01:24:42;12.40;99.90
73643;DHT22;61938;48.652;9.292;2023-05-07T01:27:08;12.40;99.90
73643;DHT22;61938;48.652;9.292;2023-05-07T01:29:33;12.50;99.90
73643;DHT22;61938;48.652;9.292;2023-05-07T01:32:00;12.60;99.90
73643;DHT22;61938;48.652;9.292;2023-05-07T01:34:28;12.80;99.90
73643;DHT22;61938;48.652;9.292;2023-05-07T01:36:56;12.90;99.90
73643;DHT22;61938;48.652;9.292;2023-05-07T01:39:27;12.90;99.90
73643;DHT22;61938;48.652;9.292;2023-05-07T01:41:55;12.90;99.90
73643;DHT22;61938;48.652;9.292;2023-05-07T01:44:22;13.00;99.90
73643;DHT22;61938;48.652;9.292;2023-05-07T01:46:48;12.90;99.90
73643;DHT22;61938;48.652;9.292;2023-05-07T01:49:15;12.80;99.90
73643;DHT22;61938;48.652;9.292;2023-05-07T01:51:41;12.80;99.90
73643;DHT22;61938;48.652;9.292;2023-05-07T01:54:07;12.70;99.90
73643;DHT22;61938;48.652;9.292;2023-05-07T01:56:33;12.70;99.90
73643;DHT22;61938;48.652;9.292;2023-05-07T01:58:59;12.70;99.90
73643;DHT22;61938;48.652;9.292;2023-05-07T02:01:24;12.60;99.90
73643;DHT22;61938;48.652;9.292;2023-05-07T02:03:50;12.60;99.90
73643;DHT22;61938;48.652;9.292;2023-05-07T02:06:16;12.50;99.90
73643;DHT22;61938;48.652;9.292;2023-05-07T02:08:41;12.50;99.90
73643;DHT22;61938;48.652;9.292;2023-05-07T02:11:07;12.40;99.90
73643;DHT22;61938;48.652;9.292;2023-05-07T02:13:33;12.30;99.90
73643;DHT22;61938;48.652;9.292;2023-05-07T02:15:59;12.20;99.90
73643;DHT22;61938;48.652;9.292;2023-05-07T02:18:25;12.20;99.90
73643;DHT22;61938;48.652;9.292;2023-05-07T02:20:51;12.00;99.90
73643;DHT22;61938;48.652;9.292;2023-05-07T02:23:16;12.00;99.90
73643;DHT22;61938;48.652;9.292;2023-05-07T02:25:42;11.90;99.90
73643;DHT22;61938;48.652;9.292;2023-05-07T02:28:07;11.80;99.90
73643;DHT22;61938;48.652;9.292;2023-05-07T02:30:33;11.80;99.90
73643;DHT22;61938;48.652;9.292;2023-05-07T02:32:58;11.70;99.90
73643;DHT22;61938;48.652;9.292;2023-05-07T02:35:24;11.70;99.90
73643;DHT22;61938;48.652;9.292;2023-05-07T02:37:50;11.70;99.90
73643;DHT22;61938;48.652;9.292;2023-05-07T02:40:16;11.60;99.90
73643;DHT22;61938;48.652;9.292;2023-05-07T02:42:41;11.60;99.90
73643;DHT22;61938;48.652;9.292;2023-05-07T02:45:07;11.60;99.90
73643;DHT22;61938;48.652;9.292;2023-05-07T02:47:33;11.60;99.90
73643;DHT22;61938;48.652;9.292;2023-05-07T02:49:58;11.60;99.90
73643;DHT22;61938;48.652;9.292;2023-05-07T02:52:24;11.50;99.90
73643;DHT22;61938;48.652;9.292;2023-05-07T02:54:49;11.60;99.90
73643;DHT22;61938;48.652;9.292;2023-05-07T02:57:15;11.50;99.90
73643;DHT22;61938;48.652;9.292;2023-05-07T02:59:41;11.50;99.90
73643;DHT22;61938;48.652;9.292;2023-05-07T03:02:07;11.50;99.90
73643;DHT22;61938;48.652;9.292;2023-05-07T03:04:32;11.50;99.90
73643;DHT22;61938;48.652;9.292;2023-05-07T03:06:58;11.50;99.90
73643;DHT22;61938;48.652;9.292;2023-05-07T03:09:23;11.50;99.90
73643;DHT22;61938;48.652;9.292;2023-05-07T03:11:49;11.40;99.90
73643;DHT22;61938;48.652;9.292;2023-05-07T03:14:15;11.40;99.90
73643;DHT22;61938;48.652;9.292;2023-05-07T03:16:40;11.30;99.90
73643;DHT22;61938;48.652;9.292;2023-05-07T03:19:06;11.30;99.90
73643;DHT22;61938;48.652;9.292;2023-05-07T03:21:31;11.20;99.90
73643;DHT22;61938;48.652;9.292;2023-05-07T03:23:59;11.20;99.90
73643;DHT22;61938;48.652;9.292;2023-05-07T03:26:24;11.20;99.90
73643;DHT22;61938;48.652;9.292;2023-05-07T03:28:50;11.20;99.90
73643;DHT22;61938;48.652;9.292;2023-05-07T03:31:16;11.20;99.90
73643;DHT22;61938;48.652;9.292;2023-05-07T03:33:56;11.10;99.90
73643;DHT22;61938;48.652;9.292;2023-05-07T03:36:22;11.00;99.90
73643;DHT22;61938;48.652;9.292;2023-05-07T03:38:48;11.00;99.90
73643;DHT22;61938;48.652;9.292;2023-05-07T03:41:14;11.00;99.90
73643;DHT22;61938;48.652;9.292;2023-05-07T03:43:40;10.90;99.90
73643;DHT22;61938;48.652;9.292;2023-05-07T03:46:05;10.90;99.90
73643;DHT22;61938;48.652;9.292;2023-05-07T03:48:31;10.70;99.90
73643;DHT22;61938;48.652;9.292;2023-05-07T03:50:57;10.70;99.90
73643;DHT22;61938;48.652;9.292;2023-05-07T03:53:23;10.70;99.90
73643;DHT22;61938;48.652;9.292;2023-05-07T03:55:48;10.50;99.90
73643;DHT22;61938;48.652;9.292;2023-05-07T03:58:15;10.50;99.90
73643;DHT22;61938;48.652;9.292;2023-05-07T04:00:40;10.50;99.90
73643;DHT22;61938;48.652;9.292;2023-05-07T04:03:06;10.40;99.90
73643;DHT22;61938;48.652;9.292;2023-05-07T04:05:32;10.40;99.90
73643;DHT22;61938;48.652;9.292;2023-05-07T04:08:01;10.40;99.90
73643;DHT22;61938;48.652;9.292;2023-05-07T04:10:29;10.30;99.90
73643;DHT22;61938;48.652;9.292;2023-05-07T04:12:54;10.30;99.90
73643;DHT22;61938;48.652;9.292;2023-05-07T04:15:20;10.20;99.90
73643;DHT22;61938;48.652;9.292;2023-05-07T04:17:45;10.20;99.90
73643;DHT22;61938;48.652;9.292;2023-05-07T04:20:15;10.20;99.90
73643;DHT22;61938;48.652;9.292;2023-05-07T04:22:40;10.30;99.90
73643;DHT22;61938;48.652;9.292;2023-05-07T04:25:06;10.60;99.90
73643;DHT22;61938;48.652;9.292;2023-05-07T04:27:34;10.40;99.90
73643;DHT22;61938;48.652;9.292;2023-05-07T04:30:00;10.40;99.90
73643;DHT22;61938;48.652;9.292;2023-05-07T04:32:26;10.30;99.90
73643;DHT22;61938;48.652;9.292;2023-05-07T04:34:51;10.30;99.90
73643;DHT22;61938;48.652;9.292;2023-05-07T04:37:17;10.40;99.90
73643;DHT22;61938;48.652;9.292;2023-05-07T04:39:43;10.30;99.90
73643;DHT22;61938;48.652;9.292;2023-05-07T04:42:08;10.40;99.90
73643;DHT22;61938;48.652;9.292;2023-05-07T04:44:34;10.40;99.90
73643;DHT22;61938;48.652;9.292;2023-05-07T04:47:02;10.40;99.90
73643;DHT22;61938;48.652;9.292;2023-05-07T04:49:27;10.40;99.90
73643;DHT22;61938;48.652;9.292;2023-05-07T04:51:53;10.40;99.90
73643;DHT22;61938;48.652;9.292;2023-05-07T04:54:18;10.40;99.90
73643;DHT22;61938;48.652;9.292;2023-05-07T04:56:44;10.40;99.90
73643;DHT22;61938;48.652;9.292;2023-05-07T04:59:09;10.40;99.90
73643;DHT22;61938;48.652;9.292;2023-05-07T05:01:35;10.50;99.90
73643;DHT22;61938;48.652;9.292;2023-05-07T05:04:00;10.60;99.90
73643;DHT22;61938;48.652;9.292;2023-05-07T05:06:26;10.70;99.90
73643;DHT22;61938;48.652;9.292;2023-05-07T05:08:51;10.80;99.90
73643;DHT22;61938;48.652;9.292;2023-05-07T05:11:17;10.90;99.90
73643;DHT22;61938;48.652;9.292;2023-05-07T05:13:42;11.00;99.90
73643;DHT22;61938;48.652;9.292;2023-05-07T05:16:08;11.20;99.90
73643;DHT22;61938;48.652;9.292;2023-05-07T05:18:34;11.40;99.90
73643;DHT22;61938;48.652;9.292;2023-05-07T05:20:59;11.60;99.90
73643;DHT22;61938;48.652;9.292;2023-05-07T05:23:25;11.70;99.90
73643;DHT22;61938;48.652;9.292;2023-05-07T05:25:55;11.80;99.90
73643;DHT22;61938;48.652;9.292;2023-05-07T05:28:21;11.90;99.90
73643;DHT22;61938;48.652;9.292;2023-05-07T05:30:47;12.00;99.90
73643;DHT22;61938;48.652;9.292;2023-05-07T05:33:12;12.10;99.90
73643;DHT22;61938;48.652;9.292;2023-05-07T05:35:38;12.20;99.90
73643;DHT22;61938;48.652;9.292;2023-05-07T05:38:03;12.40;99.90
73643;DHT22;61938;48.652;9.292;2023-05-07T05:40:29;12.50;99.90
73643;DHT22;61938;48.652;9.292;2023-05-07T05:42:54;12.70;99.90
73643;DHT22;61938;48.652;9.292;2023-05-07T05:45:20;12.90;99.90
73643;DHT22;61938;48.652;9.292;2023-05-07T05:47:46;13.10;99.90
73643;DHT22;61938;48.652;9.292;2023-05-07T05:50:11;13.20;99.90
73643;DHT22;61938;48.652;9.292;2023-05-07T05:52:37;13.40;99.90
73643;DHT22;61938;48.652;9.292;2023-05-07T05:55:03;13.70;99.90
73643;DHT22;61938;48.652;9.292;2023-05-07T05:57:29;13.90;99.90
73643;DHT22;61938;48.652;9.292;2023-05-07T05:59:54;14.10;99.90
73643;DHT22;61938;48.652;9.292;2023-05-07T06:02:20;14.20;99.90
73643;DHT22;61938;48.652;9.292;2023-05-07T06:04:45;14.40;99.90
73643;DHT22;61938;48.652;9.292;2023-05-07T06:07:11;14.60;99.90
73643;DHT22;61938;48.652;9.292;2023-05-07T06:09:37;14.70;99.90
73643;DHT22;61938;48.652;9.292;2023-05-07T06:12:02;14.90;99.90
73643;DHT22;61938;48.652;9.292;2023-05-07T06:14:28;15.10;99.90
73643;DHT22;61938;48.652;9.292;2023-05-07T06:16:53;15.30;99.90
73643;DHT22;61938;48.652;9.292;2023-05-07T06:19:19;15.50;99.90
73643;DHT22;61938;48.652;9.292;2023-05-07T06:21:48;15.50;99.90
73643;DHT22;61938;48.652;9.292;2023-05-07T06:24:14;15.60;99.90
73643;DHT22;61938;48.652;9.292;2023-05-07T06:26:49;15.70;99.90
73643;DHT22;61938;48.652;9.292;2023-05-07T06:29:17;15.90;99.90
73643;DHT22;61938;48.652;9.292;2023-05-07T06:31:42;16.10;99.90
73643;DHT22;61938;48.652;9.292;2023-05-07T06:34:08;16.20;99.90
73643;DHT22;61938;48.652;9.292;2023-05-07T06:36:34;16.20;99.90
73643;DHT22;61938;48.652;9.292;2023-05-07T06:38:59;16.20;99.90
73643;DHT22;61938;48.652;9.292;2023-05-07T06:41:57;16.40;99.90
73643;DHT22;61938;48.652;9.292;2023-05-07T06:44:23;16.70;99.90
73643;DHT22;61938;48.652;9.292;2023-05-07T06:46:48;17.10;99.90
73643;DHT22;61938;48.652;9.292;2023-05-07T06:49:20;17.20;99.90
73643;DHT22;61938;48.652;9.292;2023-05-07T06:51:46;17.50;99.90
73643;DHT22;61938;48.652;9.292;2023-05-07T06:54:11;17.70;99.90
73643;DHT22;61938;48.652;9.292;2023-05-07T06:56:37;18.70;99.90
73643;DHT22;61938;48.652;9.292;2023-05-07T06:59:03;17.80;99.90
73643;DHT22;61938;48.652;9.292;2023-05-07T07:01:29;17.70;99.90
73643;DHT22;61938;48.652;9.292;2023-05-07T07:04:00;17.60;99.90
73643;DHT22;61938;48.652;9.292;2023-05-07T07:06:33;18.00;99.90
73643;DHT22;61938;48.652;9.292;2023-05-07T07:09:05;18.00;99.90
73643;DHT22;61938;48.652;9.292;2023-05-07T07:11:38;19.90;99.90
73643;DHT22;61938;48.652;9.292;2023-05-07T07:14:31;18.50;99.90
73643;DHT22;61938;48.652;9.292;2023-05-07T07:16:59;19.00;99.90
73643;DHT22;61938;48.652;9.292;2023-05-07T07:19:35;20.30;99.90
73643;DHT22;61938;48.652;9.292;2023-05-07T07:22:16;16.80;99.90
73643;DHT22;61938;48.652;9.292;2023-05-07T07:24:47;18.80;99.90
73643;DHT22;61938;48.652;9.292;2023-05-07T07:27:13;19.70;99.90
73643;DHT22;61938;48.652;9.292;2023-05-07T07:29:38;19.40;99.90
73643;DHT22;61938;48.652;9.292;2023-05-07T07:32:04;19.00;99.90
73643;DHT22;61938;48.652;9.292;2023-05-07T07:34:29;19.60;99.90
73643;DHT22;61938;48.652;9.292;2023-05-07T07:36:55;20.10;99.90
73643;DHT22;61938;48.652;9.292;2023-05-07T07:39:21;19.90;99.90
73643;DHT22;61938;48.652;9.292;2023-05-07T07:41:46;19.90;99.90
73643;DHT22;61938;48.652;9.292;2023-05-07T07:44:12;19.90;99.90
73643;DHT22;61938;48.652;9.292;2023-05-07T07:46:38;20.00;99.90
73643;DHT22;61938;48.652;9.292;2023-05-07T07:49:03;20.20;99.90
73643;DHT22;61938;48.652;9.292;2023-05-07T07:51:29;20.20;99.90
73643;DHT22;61938;48.652;9.292;2023-05-07T07:53:55;20.10;99.90
73643;DHT22;61938;48.652;9.292;2023-05-07T07:56:23;20.10;99.90
73643;DHT22;61938;48.652;9.292;2023-05-07T07:58:48;20.20;99.90
73643;DHT22;61938;48.652;9.292;2023-05-07T08:01:14;20.30;99.90
73643;DHT22;61938;48.652;9.292;2023-05-07T08:03:40;20.50;99.90
73643;DHT22;61938;48.652;9.292;2023-05-07T08:06:05;20.70;99.90
73643;DHT22;61938;48.652;9.292;2023-05-07T08:08:31;20.50;99.90
73643;DHT22;61938;48.652;9.292;2023-05-07T08:10:57;20.70;99.90
73643;DHT22;61938;48.652;9.292;2023-05-07T08:13:22;20.70;99.90
73643;DHT22;61938;48.652;9.292;2023-05-07T08:15:48;20.80;99.90
73643;DHT22;61938;48.652;9.292;2023-05-07T08:18:13;20.80;99.90
73643;DHT22;61938;48.652;9.292;2023-05-07T08:20:39;20.80;99.90
73643;DHT22;61938;48.652;9.292;2023-05-07T08:23:05;21.00;99.90
73643;DHT22;61938;48.652;9.292;2023-05-07T08:25:35;21.20;99.90
73643;DHT22;61938;48.652;9.292;2023-05-07T08:28:19;21.30;99.90
73643;DHT22;61938;48.652;9.292;2023-05-07T08:30:53;21.70;99.90
73643;DHT22;61938;48.652;9.292;2023-05-07T08:33:18;21.60;99.90
73643;DHT22;61938;48.652;9.292;2023-05-07T08:35:44;22.30;99.90
73643;DHT22;61938;48.652;9.292;2023-05-07T08:38:09;22.70;99.90
73643;DHT22;61938;48.652;9.292;2023-05-07T08:40:39;22.70;99.90
73643;DHT22;61938;48.652;9.292;2023-05-07T08:43:06;22.80;99.90
73643;DHT22;61938;48.652;9.292;2023-05-07T08:45:33;23.00;99.90
73643;DHT22;61938;48.652;9.292;2023-05-07T08:48:21;22.90;99.90
73643;DHT22;61938;48.652;9.292;2023-05-07T08:50:54;22.40;99.90
73643;DHT22;61938;48.652;9.292;2023-05-07T08:54:10;21.70;99.90
73643;DHT22;61938;48.652;9.292;2023-05-07T08:57:06;22.40;99.90
73643;DHT22;61938;48.652;9.292;2023-05-07T09:00:08;22.90;99.90
73643;DHT22;61938;48.652;9.292;2023-05-07T09:03:11;23.60;99.90
73643;DHT22;61938;48.652;9.292;2023-05-07T09:05:59;23.00;99.90
73643;DHT22;61938;48.652;9.292;2023-05-07T09:08:43;23.80;99.90
73643;DHT22;61938;48.652;9.292;2023-05-07T09:11:56;24.90;99.90
73643;DHT22;61938;48.652;9.292;2023-05-07T09:14:42;24.20;99.90
73643;DHT22;61938;48.652;9.292;2023-05-07T09:17:28;25.70;99.90
73643;DHT22;61938;48.652;9.292;2023-05-07T09:20:10;24.80;99.90
73643;DHT22;61938;48.652;9.292;2023-05-07T09:25:59;24.10;99.90
73643;DHT22;61938;48.652;9.292;2023-05-07T09:29:09;22.60;99.90
73643;DHT22;61938;48.652;9.292;2023-05-07T09:34:45;24.60;99.90
73643;DHT22;61938;48.652;9.292;2023-05-07T09:44:06;24.60;99.90
73643;DHT22;61938;48.652;9.292;2023-05-07T09:47:02;25.20;99.90
73643;DHT22;61938;48.652;9.292;2023-05-07T09:49:55;25.20;99.90
73643;DHT22;61938;48.652;9.292;2023-05-07T09:52:57;25.20;99.90
73643;DHT22;61938;48.652;9.292;2023-05-07T09:55:32;24.70;99.90
73643;DHT22;61938;48.652;9.292;2023-05-07T09:58:04;24.90;99.90
73643;DHT22;61938;48.652;9.292;2023-05-07T10:00:59;25.10;99.90
73643;DHT22;61938;48.652;9.292;2023-05-07T10:03:42;26.00;99.90
73643;DHT22;61938;48.652;9.292;2023-05-07T10:06:17;25.30;99.90
73643;DHT22;61938;48.652;9.292;2023-05-07T10:09:08;25.50;99.90
73643;DHT22;61938;48.652;9.292;2023-05-07T10:12:13;24.80;99.90
73643;DHT22;61938;48.652;9.292;2023-05-07T10:14:57;25.60;99.90
73643;DHT22;61938;48.652;9.292;2023-05-07T10:20:50;25.10;99.90
73643;DHT22;61938;48.652;9.292;2023-05-07T10:23:25;26.60;99.90
73643;DHT22;61938;48.652;9.292;2023-05-07T10:26:15;25.50;99.90
73643;DHT22;61938;48.652;9.292;2023-05-07T10:28:45;26.10;99.90
73643;DHT22;61938;48.652;9.292;2023-05-07T10:33:59;25.70;99.90
73643;DHT22;61938;48.652;9.292;2023-05-07T10:36:26;25.90;99.90
73643;DHT22;61938;48.652;9.292;2023-05-07T10:38:53;25.90;99.90
73643;DHT22;61938;48.652;9.292;2023-05-07T10:41:19;25.90;99.90
73643;DHT22;61938;48.652;9.292;2023-05-07T10:43:46;26.10;99.90
73643;DHT22;61938;48.652;9.292;2023-05-07T10:46:15;26.50;99.90
73643;DHT22;61938;48.652;9.292;2023-05-07T10:51:26;26.40;99.90
73643;DHT22;61938;48.652;9.292;2023-05-07T10:56:36;26.40;99.90
73643;DHT22;61938;48.652;9.292;2023-05-07T11:02:00;26.40;99.90
73643;DHT22;61938;48.652;9.292;2023-05-07T11:04:28;26.70;99.90
73643;DHT22;61938;48.652;9.292;2023-05-07T11:15:06;26.00;98.70
73643;DHT22;61938;48.652;9.292;2023-05-07T11:17:33;25.60;98.90
73643;DHT22;61938;48.652;9.292;2023-05-07T11:20:01;25.70;99.90
73643;DHT22;61938;48.652;9.292;2023-05-07T11:24:56;26.40;99.90
73643;DHT22;61938;48.652;9.292;2023-05-07T11:27:26;26.50;99.40
73643;DHT22;61938;48.652;9.292;2023-05-07T11:29:52;26.60;96.00
73643;DHT22;61938;48.652;9.292;2023-05-07T11:32:25;26.80;99.90
73643;DHT22;61938;48.652;9.292;2023-05-07T11:34:57;27.00;99.90
73643;DHT22;61938;48.652;9.292;2023-05-07T11:37:24;26.90;99.30
73643;DHT22;61938;48.652;9.292;2023-05-07T11:39:50;27.00;97.40
73643;DHT22;61938;48.652;9.292;2023-05-07T11:42:32;27.80;99.90
73643;DHT22;61938;48.652;9.292;2023-05-07T11:44:58;27.30;96.40
73643;DHT22;61938;48.652;9.292;2023-05-07T11:47:24;27.30;97.30
73643;DHT22;61938;48.652;9.292;2023-05-07T11:49:52;27.20;99.20
73643;DHT22;61938;48.652;9.292;2023-05-07T11:52:19;27.30;97.70
73643;DHT22;61938;48.652;9.292;2023-05-07T11:54:56;27.00;93.30
73643;DHT22;61938;48.652;9.292;2023-05-07T11:57:25;26.70;97.40
73643;DHT22;61938;48.652;9.292;2023-05-07T11:59:58;26.30;97.10
73643;DHT22;61938;48.652;9.292;2023-05-07T12:02:24;26.00;95.70
73643;DHT22;61938;48.652;9.292;2023-05-07T12:04:54;25.50;96.20
73643;DHT22;61938;48.652;9.292;2023-05-07T12:07:20;25.40;95.50
73643;DHT22;61938;48.652;9.292;2023-05-07T12:09:46;25.20;95.50
73643;DHT22;61938;48.652;9.292;2023-05-07T12:12:13;25.00;96.60
73643;DHT22;61938;48.652;9.292;2023-05-07T12:14:44;24.90;96.00
73643;DHT22;61938;48.652;9.292;2023-05-07T12:17:29;24.60;94.90
73643;DHT22;61938;48.652;9.292;2023-05-07T12:19:55;24.00;98.50
73643;DHT22;61938;48.652;9.292;2023-05-07T12:22:20;23.40;99.50
73643;DHT22;61938;48.652;9.292;2023-05-07T12:24:48;22.90;99.90
73643;DHT22;61938;48.652;9.292;2023-05-07T12:27:14;22.40;99.90
73643;DHT22;61938;48.652;9.292;2023-05-07T12:29:47;22.20;99.90
73643;DHT22;61938;48.652;9.292;2023-05-07T12:32:26;22.00;99.90
73643;DHT22;61938;48.652;9.292;2023-05-07T12:34:57;21.70;99.90
73643;DHT22;61938;48.652;9.292;2023-05-07T12:37:54;21.50;99.90
73643;DHT22;61938;48.652;9.292;2023-05-07T12:40:43;20.90;99.90
73643;DHT22;61938;48.652;9.292;2023-05-07T12:43:16;21.90;99.90
73643;DHT22;61938;48.652;9.292;2023-05-07T12:45:56;20.70;99.90
73643;DHT22;61938;48.652;9.292;2023-05-07T12:48:59;20.20;99.90
73643;DHT22;61938;48.652;9.292;2023-05-07T12:51:31;21.20;99.90
73643;DHT22;61938;48.652;9.292;2023-05-07T12:53:56;19.80;99.90
73643;DHT22;61938;48.652;9.292;2023-05-07T12:56:30;19.90;99.90
73643;DHT22;61938;48.652;9.292;2023-05-07T12:59:08;19.80;99.90
73643;DHT22;61938;48.652;9.292;2023-05-07T13:01:34;18.40;99.90
73643;DHT22;61938;48.652;9.292;2023-05-07T13:04:03;20.00;99.90
73643;DHT22;61938;48.652;9.292;2023-05-07T13:09:13;19.20;99.90
73643;DHT22;61938;48.652;9.292;2023-05-07T13:11:39;18.90;99.90
73643;DHT22;61938;48.652;9.292;2023-05-07T13:14:10;19.70;99.90
73643;DHT22;61938;48.652;9.292;2023-05-07T13:16:39;18.80;99.90
73643;DHT22;61938;48.652;9.292;2023-05-07T13:19:25;17.80;99.90
73643;DHT22;61938;48.652;9.292;2023-05-07T13:21:59;20.10;99.90
73643;DHT22;61938;48.652;9.292;2023-05-07T13:24:25;19.00;99.90
73643;DHT22;61938;48.652;9.292;2023-05-07T13:26:51;17.80;99.90
73643;DHT22;61938;48.652;9.292;2023-05-07T13:29:16;17.90;99.90
73643;DHT22;61938;48.652;9.292;2023-05-07T13:31:42;17.70;99.90
73643;DHT22;61938;48.652;9.292;2023-05-07T13:34:09;19.30;99.90
73643;DHT22;61938;48.652;9.292;2023-05-07T13:36:35;16.00;99.90
73643;DHT22;61938;48.652;9.292;2023-05-07T13:39:04;18.40;99.90
73643;DHT22;61938;48.652;9.292;2023-05-07T13:41:31;17.40;99.90
73643;DHT22;61938;48.652;9.292;2023-05-07T13:43:57;17.60;99.90
73643;DHT22;61938;48.652;9.292;2023-05-07T13:46:22;17.40;99.90
73643;DHT22;61938;48.652;9.292;2023-05-07T13:48:50;18.40;99.90
73643;DHT22;61938;48.652;9.292;2023-05-07T13:51:16;18.10;99.90
73643;DHT22;61938;48.652;9.292;2023-05-07T13:53:42;16.70;99.90
73643;DHT22;61938;48.652;9.292;2023-05-07T13:56:12;17.50;99.90
73643;DHT22;61938;48.652;9.292;2023-05-07T13:58:42;16.40;99.90
73643;DHT22;61938;48.652;9.292;2023-05-07T14:01:10;17.40;99.90
73643;DHT22;61938;48.652;9.292;2023-05-07T14:03:38;15.70;99.90
73643;DHT22;61938;48.652;9.292;2023-05-07T14:06:09;15.50;99.90
73643;DHT22;61938;48.652;9.292;2023-05-07T14:08:34;17.50;99.90
73643;DHT22;61938;48.652;9.292;2023-05-07T14:11:00;15.30;99.90
73643;DHT22;61938;48.652;9.292;2023-05-07T14:13:25;15.10;99.90
73643;DHT22;61938;48.652;9.292;2023-05-07T14:15:52;14.50;99.90
73643;DHT22;61938;48.652;9.292;2023-05-07T14:18:17;15.00;99.90
73643;DHT22;61938;48.652;9.292;2023-05-07T14:20:43;14.90;99.90
73643;DHT22;61938;48.652;9.292;2023-05-07T14:23:09;14.90;99.90
73643;DHT22;61938;48.652;9.292;2023-05-07T14:25:34;15.00;99.90
73643;DHT22;61938;48.652;9.292;2023-05-07T14:28:00;15.00;99.90
73643;DHT22;61938;48.652;9.292;2023-05-07T14:30:25;15.00;99.90
73643;DHT22;61938;48.652;9.292;2023-05-07T14:32:51;15.00;99.90
73643;DHT22;61938;48.652;9.292;2023-05-07T14:35:17;15.00;99.90
73643;DHT22;61938;48.652;9.292;2023-05-07T14:37:43;15.00;99.90
73643;DHT22;61938;48.652;9.292;2023-05-07T14:40:09;14.90;99.90
73643;DHT22;61938;48.652;9.292;2023-05-07T14:42:34;14.90;99.90
73643;DHT22;61938;48.652;9.292;2023-05-07T14:45:00;14.90;99.90
73643;DHT22;61938;48.652;9.292;2023-05-07T14:47:25;14.90;99.90
73643;DHT22;61938;48.652;9.292;2023-05-07T14:49:51;14.90;99.90
73643;DHT22;61938;48.652;9.292;2023-05-07T14:52:18;14.90;99.90
73643;DHT22;61938;48.652;9.292;2023-05-07T14:54:43;15.00;99.90
73643;DHT22;61938;48.652;9.292;2023-05-07T14:57:10;15.00;99.90
73643;DHT22;61938;48.652;9.292;2023-05-07T14:59:38;15.00;99.90
73643;DHT22;61938;48.652;9.292;2023-05-07T15:02:04;15.10;99.90
73643;DHT22;61938;48.652;9.292;2023-05-07T15:04:30;15.20;99.90
73643;DHT22;61938;48.652;9.292;2023-05-07T15:06:56;15.30;99.90
73643;DHT22;61938;48.652;9.292;2023-05-07T15:09:22;15.40;99.90
73643;DHT22;61938;48.652;9.292;2023-05-07T15:11:47;15.50;99.90
73643;DHT22;61938;48.652;9.292;2023-05-07T15:14:13;15.50;99.90
73643;DHT22;61938;48.652;9.292;2023-05-07T15:16:38;15.60;99.90
73643;DHT22;61938;48.652;9.292;2023-05-07T15:19:04;15.50;99.90
73643;DHT22;61938;48.652;9.292;2023-05-07T15:21:29;15.40;99.90
73643;DHT22;61938;48.652;9.292;2023-05-07T15:23:58;15.40;99.90
73643;DHT22;61938;48.652;9.292;2023-05-07T15:26:23;15.30;99.90
73643;DHT22;61938;48.652;9.292;2023-05-07T15:28:49;15.30;99.90
73643;DHT22;61938;48.652;9.292;2023-05-07T15:31:15;15.40;99.90
73643;DHT22;61938;48.652;9.292;2023-05-07T15:33:42;15.40;99.90
73643;DHT22;61938;48.652;9.292;2023-05-07T15:36:07;15.40;99.90
73643;DHT22;61938;48.652;9.292;2023-05-07T15:38:34;15.40;99.90
73643;DHT22;61938;48.652;9.292;2023-05-07T15:40:59;15.40;99.90
73643;DHT22;61938;48.652;9.292;2023-05-07T15:43:25;15.50;99.90
73643;DHT22;61938;48.652;9.292;2023-05-07T15:45:51;15.50;99.90
73643;DHT22;61938;48.652;9.292;2023-05-07T15:48:16;15.50;99.90
73643;DHT22;61938;48.652;9.292;2023-05-07T15:50:42;15.60;99.90
73643;DHT22;61938;48.652;9.292;2023-05-07T15:53:08;15.60;99.90
73643;DHT22;61938;48.652;9.292;2023-05-07T15:55:33;15.70;99.90
73643;DHT22;61938;48.652;9.292;2023-05-07T15:57:59;15.70;99.90
73643;DHT22;61938;48.652;9.292;2023-05-07T16:00:26;15.70;99.90
73643;DHT22;61938;48.652;9.292;2023-05-07T16:02:52;15.90;99.90
73643;DHT22;61938;48.652;9.292;2023-05-07T16:05:18;15.90;99.90
73643;DHT22;61938;48.652;9.292;2023-05-07T16:07:43;15.90;99.90
73643;DHT22;61938;48.652;9.292;2023-05-07T16:10:09;16.00;99.90
73643;DHT22;61938;48.652;9.292;2023-05-07T16:12:35;16.00;99.90
73643;DHT22;61938;48.652;9.292;2023-05-07T16:15:01;16.00;99.90
73643;DHT22;61938;48.652;9.292;2023-05-07T16:17:27;16.10;99.90
73643;DHT22;61938;48.652;9.292;2023-05-07T16:19:52;16.20;99.90
73643;DHT22;61938;48.652;9.292;2023-05-07T16:22:18;16.20;99.90